Radar is unstable, so pay attention to the date and time in the image

Latest  Newer  Older  Last 2 hours animation  Current image  Latest image  Summary per 24h (testing)  Summary per 7d (testing) 
Cloud coverage sat images  Infrared sat images 
Real-time lightning map Aurora Forecast

All time is UTC (add 2 hours in wintertime, 3 hours in DST for Latvia local time)

2022/06/30 14:50 EVRA 301450Z 10006KT CAVOK 27/20 Q1017 NOSIG
2022/06/30 14:50 EVLA 301450Z AUTO 30003KT 270V340 CAVOK 22/18 Q1016
2022/06/30 14:50 EVVA 301450Z AUTO 32005KT 290V350 CAVOK 23/21 Q1016
2022/06/30 14:50 EYKA 301450Z 13008KT 080V160 9999 SCT041 29/20 Q1016
2022/06/30 14:50 EYPA 301450Z 33003KT 270V020 CAVOK 23/19 Q1016
2022/06/30 14:50 EYSA 301450Z 11008KT 9999 FEW032 27/21 Q1017 NOSIG
2022/06/30 14:50 EYVI 301450Z 11007KT 9999 SCT045 27/19 Q1018 NOSIG
2022/06/30 14:50 EEKA 301450Z 07005KT CAVOK 24/20 Q1018
2022/06/30 14:50 EEKE 301450Z 12010KT 090V150 CAVOK 27/20 Q1017
2022/06/30 14:50 EEPU 301450Z AUTO 10007KT 070V130 9999 BKN220/// 29/16 Q1018
2022/06/30 14:50 EETN 301450Z 06011KT 9999 FEW040 26/14 Q1019 NOSIG
2022/06/30 14:20 EETU 301420Z 10006KT CAVOK 27/16 Q1019
   RIGA AIRPORT     EVRA               56 55N  023 58E   10   X     T          6 LV
   LIEPAJA INTL     EVLA        26406  56 31N  021 06E    4   X                8 LV
   VENTPILS         EVVA               57 21N  021 33E    6   X                8 LV
   KAUNAS           EYKA               54 54N  023 55E   77   X     T          6 LT
   PALANGA INTL     EYPA               55 55N  021 03E   10   X                6 LT
   SIAULIAI INTL    EYSA               55 54N  023 24E  135   X     T          6 LT
   VILNIUS INTL     EYVI        26730  54 38N  025 17E  197   X     T          6 LT
   KARDLA           EEKA        26116  58 59N  022 50E    4   X                8 EE
   KURESSAARE       EEKE               58 14N  022 31E    4   X                8 EE
   PARNU            EEPU               58 25N  024 28E   14   X                8 EE
   TALLINN          EETN        26038  59 24N  024 49E   40   X     T          8 EE
   TARTU            EETU               58 19N  026 41E   67   X                8 EE

rain/snow radar image from www.meteo.lv and METAR data from weather.noaa.gov